sensor_id;sensor_type;location;lat;lon;timestamp;P1;P2;P0
65361;PMS5003;51961;54.960;73.462;2022-10-16T00:00:30;20.50;15.00;7.00
65361;PMS5003;51961;54.960;73.462;2022-10-16T00:03:44;20.00;15.00;7.75
65361;PMS5003;51961;54.960;73.462;2022-10-16T00:06:57;17.25;15.50;6.00
65361;PMS5003;51961;54.960;73.462;2022-10-16T00:10:00;16.50;16.00;7.00
65361;PMS5003;51961;54.960;73.462;2022-10-16T00:13:03;19.00;16.00;7.25
65361;PMS5003;51961;54.960;73.462;2022-10-16T00:16:07;17.00;15.00;7.00
65361;PMS5003;51961;54.960;73.462;2022-10-16T00:19:11;16.75;14.00;6.00
65361;PMS5003;51961;54.960;73.462;2022-10-16T00:22:14;16.75;14.50;7.00
65361;PMS5003;51961;54.960;73.462;2022-10-16T00:25:17;17.00;16.00;6.25
65361;PMS5003;51961;54.960;73.462;2022-10-16T00:28:20;17.00;15.00;7.25
65361;PMS5003;51961;54.960;73.462;2022-10-16T00:31:23;20.00;16.00;6.25
65361;PMS5003;51961;54.960;73.462;2022-10-16T00:34:26;23.00;16.00;8.00
65361;PMS5003;51961;54.960;73.462;2022-10-16T00:37:40;18.00;15.25;8.00
65361;PMS5003;51961;54.960;73.462;2022-10-16T00:40:43;17.00;16.50;7.00
65361;PMS5003;51961;54.960;73.462;2022-10-16T00:43:54;15.00;14.50;6.00
65361;PMS5003;51961;54.960;73.462;2022-10-16T00:46:56;15.00;12.00;4.00
65361;PMS5003;51961;54.960;73.462;2022-10-16T00:50:00;14.50;10.25;4.00
65361;PMS5003;51961;54.960;73.462;2022-10-16T00:53:09;16.00;12.00;5.00
65361;PMS5003;51961;54.960;73.462;2022-10-16T00:56:12;16.50;12.50;5.00
65361;PMS5003;51961;54.960;73.462;2022-10-16T00:59:36;15.33;14.00;5.00
65361;PMS5003;51961;54.960;73.462;2022-10-16T01:02:36;15.00;12.00;4.00
65361;PMS5003;51961;54.960;73.462;2022-10-16T01:05:39;15.50;12.00;5.00
65361;PMS5003;51961;54.960;73.462;2022-10-16T01:08:58;15.00;12.00;6.00
65361;PMS5003;51961;54.960;73.462;2022-10-16T01:18:28;15.33;11.67;5.67
65361;PMS5003;51961;54.960;73.462;2022-10-16T01:21:38;17.50;15.25;7.00
65361;PMS5003;51961;54.960;73.462;2022-10-16T01:24:52;19.00;16.25;8.00
65361;PMS5003;51961;54.960;73.462;2022-10-16T01:28:07;21.00;17.75;8.00
65361;PMS5003;51961;54.960;73.462;2022-10-16T01:31:12;19.00;17.00;8.00
65361;PMS5003;51961;54.960;73.462;2022-10-16T01:34:25;21.00;17.00;7.00
65361;PMS5003;51961;54.960;73.462;2022-10-16T01:37:43;18.50;16.00;7.00
65361;PMS5003;51961;54.960;73.462;2022-10-16T01:40:50;19.50;17.00;7.00
65361;PMS5003;51961;54.960;73.462;2022-10-16T01:47:12;21.00;17.50;9.00
65361;PMS5003;51961;54.960;73.462;2022-10-16T01:50:17;20.00;17.00;8.25
65361;PMS5003;51961;54.960;73.462;2022-10-16T01:53:21;19.00;17.00;8.25
65361;PMS5003;51961;54.960;73.462;2022-10-16T01:56:24;18.75;17.75;9.00
65361;PMS5003;51961;54.960;73.462;2022-10-16T01:59:29;19.50;17.50;9.25
65361;PMS5003;51961;54.960;73.462;2022-10-16T02:02:34;19.50;17.00;8.00
65361;PMS5003;51961;54.960;73.462;2022-10-16T02:05:41;20.25;17.50;8.00
65361;PMS5003;51961;54.960;73.462;2022-10-16T02:08:45;22.25;17.25;7.75
65361;PMS5003;51961;54.960;73.462;2022-10-16T02:11:49;17.00;15.00;7.00
65361;PMS5003;51961;54.960;73.462;2022-10-16T02:14:54;15.00;15.00;7.00
65361;PMS5003;51961;54.960;73.462;2022-10-16T02:17:56;15.00;14.75;6.00
65361;PMS5003;51961;54.960;73.462;2022-10-16T02:21:00;17.00;16.00;6.50
65361;PMS5003;51961;54.960;73.462;2022-10-16T02:24:09;15.00;15.00;6.00
65361;PMS5003;51961;54.960;73.462;2022-10-16T02:27:17;16.00;15.75;7.75
65361;PMS5003;51961;54.960;73.462;2022-10-16T02:30:36;16.00;15.00;7.25
65361;PMS5003;51961;54.960;73.462;2022-10-16T02:33:52;18.00;15.75;7.75
65361;PMS5003;51961;54.960;73.462;2022-10-16T02:36:57;20.50;16.00;7.75
65361;PMS5003;51961;54.960;73.462;2022-10-16T02:40:01;17.00;15.00;7.25
65361;PMS5003;51961;54.960;73.462;2022-10-16T02:43:05;19.25;15.00;8.00
65361;PMS5003;51961;54.960;73.462;2022-10-16T02:46:09;19.75;16.00;8.25
65361;PMS5003;51961;54.960;73.462;2022-10-16T02:49:12;20.75;16.00;9.25
65361;PMS5003;51961;54.960;73.462;2022-10-16T02:52:25;21.25;17.00;10.00
65361;PMS5003;51961;54.960;73.462;2022-10-16T02:55:28;23.00;17.50;8.25
65361;PMS5003;51961;54.960;73.462;2022-10-16T02:58:32;21.00;16.75;9.75
65361;PMS5003;51961;54.960;73.462;2022-10-16T03:01:35;20.75;18.00;10.75
65361;PMS5003;51961;54.960;73.462;2022-10-16T03:04:38;20.00;17.00;9.00
65361;PMS5003;51961;54.960;73.462;2022-10-16T03:07:51;21.50;17.50;8.00
65361;PMS5003;51961;54.960;73.462;2022-10-16T03:10:56;21.25;19.00;11.00
65361;PMS5003;51961;54.960;73.462;2022-10-16T03:14:05;25.25;18.00;11.00
65361;PMS5003;51961;54.960;73.462;2022-10-16T03:17:14;24.00;19.00;9.25
65361;PMS5003;51961;54.960;73.462;2022-10-16T03:20:19;22.00;17.00;9.00
65361;PMS5003;51961;54.960;73.462;2022-10-16T03:23:22;21.25;17.75;9.00
65361;PMS5003;51961;54.960;73.462;2022-10-16T03:26:25;22.00;19.75;8.75
65361;PMS5003;51961;54.960;73.462;2022-10-16T03:29:28;24.00;21.00;11.00
65361;PMS5003;51961;54.960;73.462;2022-10-16T03:32:32;25.25;20.00;12.25
65361;PMS5003;51961;54.960;73.462;2022-10-16T03:35:35;23.00;21.00;13.00
65361;PMS5003;51961;54.960;73.462;2022-10-16T03:38:38;21.00;19.00;11.00
65361;PMS5003;51961;54.960;73.462;2022-10-16T03:41:41;19.75;16.00;10.75
65361;PMS5003;51961;54.960;73.462;2022-10-16T03:44:44;16.00;15.00;7.75
65361;PMS5003;51961;54.960;73.462;2022-10-16T03:47:47;19.00;15.75;8.00
65361;PMS5003;51961;54.960;73.462;2022-10-16T03:50:50;21.00;15.75;7.50
65361;PMS5003;51961;54.960;73.462;2022-10-16T03:53:54;20.75;17.00;10.50
65361;PMS5003;51961;54.960;73.462;2022-10-16T03:56:57;16.25;16.00;7.00
65361;PMS5003;51961;54.960;73.462;2022-10-16T04:00:00;17.50;16.00;7.00
65361;PMS5003;51961;54.960;73.462;2022-10-16T04:03:03;16.00;14.50;5.75
65361;PMS5003;51961;54.960;73.462;2022-10-16T04:06:12;16.00;14.00;7.00
65361;PMS5003;51961;54.960;73.462;2022-10-16T04:09:15;16.00;16.00;6.00
65361;PMS5003;51961;54.960;73.462;2022-10-16T04:12:18;14.00;14.00;5.50
65361;PMS5003;51961;54.960;73.462;2022-10-16T04:15:23;16.00;14.00;6.00
65361;PMS5003;51961;54.960;73.462;2022-10-16T04:18:26;18.00;15.75;6.00
65361;PMS5003;51961;54.960;73.462;2022-10-16T04:21:32;18.50;16.00;7.00
65361;PMS5003;51961;54.960;73.462;2022-10-16T04:24:35;19.00;17.00;7.00
65361;PMS5003;51961;54.960;73.462;2022-10-16T04:27:38;16.00;15.25;7.00
65361;PMS5003;51961;54.960;73.462;2022-10-16T04:30:41;16.00;13.75;5.00
65361;PMS5003;51961;54.960;73.462;2022-10-16T04:33:49;15.00;11.75;5.00
65361;PMS5003;51961;54.960;73.462;2022-10-16T04:36:51;13.00;9.75;6.00
65361;PMS5003;51961;54.960;73.462;2022-10-16T04:40:03;12.00;8.00;4.00
65361;PMS5003;51961;54.960;73.462;2022-10-16T04:43:09;13.00;10.33;6.00
65361;PMS5003;51961;54.960;73.462;2022-10-16T04:46:12;14.50;11.00;6.00
65361;PMS5003;51961;54.960;73.462;2022-10-16T04:49:15;15.00;12.00;6.00
65361;PMS5003;51961;54.960;73.462;2022-10-16T04:52:28;10.75;7.00;3.00
65361;PMS5003;51961;54.960;73.462;2022-10-16T04:55:29;9.75;6.75;5.00
65361;PMS5003;51961;54.960;73.462;2022-10-16T04:58:31;8.75;5.25;4.00
65361;PMS5003;51961;54.960;73.462;2022-10-16T05:01:33;8.00;8.00;5.00
65361;PMS5003;51961;54.960;73.462;2022-10-16T05:04:36;7.00;6.00;3.25
65361;PMS5003;51961;54.960;73.462;2022-10-16T05:07:38;8.75;7.50;3.00
65361;PMS5003;51961;54.960;73.462;2022-10-16T05:10:43;6.75;5.25;3.00
65361;PMS5003;51961;54.960;73.462;2022-10-16T05:13:55;7.00;7.00;3.00
65361;PMS5003;51961;54.960;73.462;2022-10-16T05:16:57;6.50;6.50;3.00
65361;PMS5003;51961;54.960;73.462;2022-10-16T05:20:09;6.00;4.00;2.33
65361;PMS5003;51961;54.960;73.462;2022-10-16T05:23:11;6.75;5.75;3.00
65361;PMS5003;51961;54.960;73.462;2022-10-16T05:26:13;8.00;7.00;3.00
65361;PMS5003;51961;54.960;73.462;2022-10-16T05:29:16;8.00;8.00;4.00
65361;PMS5003;51961;54.960;73.462;2022-10-16T05:32:18;8.50;7.00;4.00
65361;PMS5003;51961;54.960;73.462;2022-10-16T05:35:20;11.00;7.50;4.00
65361;PMS5003;51961;54.960;73.462;2022-10-16T05:38:22;14.50;12.50;6.00
65361;PMS5003;51961;54.960;73.462;2022-10-16T05:41:25;16.00;12.00;7.00
65361;PMS5003;51961;54.960;73.462;2022-10-16T05:44:28;18.00;14.00;7.00
65361;PMS5003;51961;54.960;73.462;2022-10-16T05:47:31;15.00;9.50;5.00
65361;PMS5003;51961;54.960;73.462;2022-10-16T05:50:33;15.50;11.00;5.75
65361;PMS5003;51961;54.960;73.462;2022-10-16T05:53:37;17.00;11.00;6.00
65361;PMS5003;51961;54.960;73.462;2022-10-16T05:56:45;16.00;11.00;6.00
65361;PMS5003;51961;54.960;73.462;2022-10-16T05:59:47;14.00;8.00;6.00
65361;PMS5003;51961;54.960;73.462;2022-10-16T06:02:54;15.00;10.50;6.00
65361;PMS5003;51961;54.960;73.462;2022-10-16T06:05:57;17.75;12.75;6.75
65361;PMS5003;51961;54.960;73.462;2022-10-16T06:09:09;51.00;39.00;23.00
65361;PMS5003;51961;54.960;73.462;2022-10-16T06:12:13;37.67;29.33;17.33
65361;PMS5003;51961;54.960;73.462;2022-10-16T06:15:15;27.25;23.00;13.00
65361;PMS5003;51961;54.960;73.462;2022-10-16T06:18:19;30.67;24.33;15.33
65361;PMS5003;51961;54.960;73.462;2022-10-16T06:21:26;34.75;27.50;18.00
65361;PMS5003;51961;54.960;73.462;2022-10-16T06:24:30;24.67;20.33;14.00
65361;PMS5003;51961;54.960;73.462;2022-10-16T06:27:32;21.00;17.00;9.00
65361;PMS5003;51961;54.960;73.462;2022-10-16T06:30:35;21.00;18.00;8.50
65361;PMS5003;51961;54.960;73.462;2022-10-16T06:33:38;20.50;16.00;7.00
65361;PMS5003;51961;54.960;73.462;2022-10-16T06:36:41;16.00;15.00;6.00
65361;PMS5003;51961;54.960;73.462;2022-10-16T06:39:46;17.75;14.75;7.00
65361;PMS5003;51961;54.960;73.462;2022-10-16T06:42:59;18.00;13.00;7.00
65361;PMS5003;51961;54.960;73.462;2022-10-16T06:46:08;33.25;24.50;14.75
65361;PMS5003;51961;54.960;73.462;2022-10-16T06:49:11;32.50;26.00;17.00
65361;PMS5003;51961;54.960;73.462;2022-10-16T06:52:13;28.00;23.50;15.50
65361;PMS5003;51961;54.960;73.462;2022-10-16T06:55:16;24.67;21.00;14.00
65361;PMS5003;51961;54.960;73.462;2022-10-16T06:58:23;21.33;20.33;13.00
65361;PMS5003;51961;54.960;73.462;2022-10-16T07:01:26;20.33;18.00;10.00
65361;PMS5003;51961;54.960;73.462;2022-10-16T07:04:30;21.00;16.75;8.00
65361;PMS5003;51961;54.960;73.462;2022-10-16T07:07:32;20.00;16.00;8.00
65361;PMS5003;51961;54.960;73.462;2022-10-16T07:10:35;19.75;17.75;9.00
65361;PMS5003;51961;54.960;73.462;2022-10-16T07:13:38;20.00;17.00;9.00
65361;PMS5003;51961;54.960;73.462;2022-10-16T07:16:42;19.00;16.75;9.25
65361;PMS5003;51961;54.960;73.462;2022-10-16T07:19:44;21.00;17.67;8.00
65361;PMS5003;51961;54.960;73.462;2022-10-16T07:22:47;21.00;18.00;9.00
65361;PMS5003;51961;54.960;73.462;2022-10-16T07:25:53;17.00;15.00;7.00
65361;PMS5003;51961;54.960;73.462;2022-10-16T07:28:57;16.75;14.00;7.00
65361;PMS5003;51961;54.960;73.462;2022-10-16T07:32:01;17.00;15.00;7.00
65361;PMS5003;51961;54.960;73.462;2022-10-16T07:35:08;15.75;13.00;6.00
65361;PMS5003;51961;54.960;73.462;2022-10-16T07:38:11;16.00;14.00;6.00
65361;PMS5003;51961;54.960;73.462;2022-10-16T07:41:15;15.75;13.00;5.00
65361;PMS5003;51961;54.960;73.462;2022-10-16T07:44:18;15.00;12.00;5.00
65361;PMS5003;51961;54.960;73.462;2022-10-16T07:47:22;17.75;13.25;7.00
65361;PMS5003;51961;54.960;73.462;2022-10-16T07:50:25;16.75;14.00;7.00
65361;PMS5003;51961;54.960;73.462;2022-10-16T07:53:28;16.00;13.00;4.25
65361;PMS5003;51961;54.960;73.462;2022-10-16T07:56:31;13.75;12.00;5.00
65361;PMS5003;51961;54.960;73.462;2022-10-16T07:59:34;14.75;10.25;5.00
65361;PMS5003;51961;54.960;73.462;2022-10-16T08:02:47;16.00;10.75;4.75
65361;PMS5003;51961;54.960;73.462;2022-10-16T08:06:01;12.00;7.00;3.00
65361;PMS5003;51961;54.960;73.462;2022-10-16T08:09:03;8.50;8.00;3.00
65361;PMS5003;51961;54.960;73.462;2022-10-16T08:12:05;9.00;8.25;5.00
65361;PMS5003;51961;54.960;73.462;2022-10-16T08:15:07;12.00;8.33;4.33
65361;PMS5003;51961;54.960;73.462;2022-10-16T08:18:11;12.67;10.00;5.00
65361;PMS5003;51961;54.960;73.462;2022-10-16T08:21:16;11.50;8.00;4.25
65361;PMS5003;51961;54.960;73.462;2022-10-16T08:24:18;15.00;12.00;6.00
65361;PMS5003;51961;54.960;73.462;2022-10-16T08:27:21;18.00;15.00;6.00
65361;PMS5003;51961;54.960;73.462;2022-10-16T08:30:24;17.50;14.75;7.00
65361;PMS5003;51961;54.960;73.462;2022-10-16T08:33:27;20.25;15.75;8.75
65361;PMS5003;51961;54.960;73.462;2022-10-16T08:36:30;23.75;20.50;11.50
65361;PMS5003;51961;54.960;73.462;2022-10-16T08:39:33;27.25;22.00;14.00
65361;PMS5003;51961;54.960;73.462;2022-10-16T08:42:43;30.00;25.33;15.00
65361;PMS5003;51961;54.960;73.462;2022-10-16T08:46:08;31.33;27.33;17.00
65361;PMS5003;51961;54.960;73.462;2022-10-16T08:49:18;33.50;28.75;17.50
65361;PMS5003;51961;54.960;73.462;2022-10-16T08:52:29;37.00;29.00;19.00
65361;PMS5003;51961;54.960;73.462;2022-10-16T08:58:40;34.00;27.25;18.00
65361;PMS5003;51961;54.960;73.462;2022-10-16T09:01:45;34.00;26.00;17.00
65361;PMS5003;51961;54.960;73.462;2022-10-16T09:08:36;27.00;21.00;13.33
65361;PMS5003;51961;54.960;73.462;2022-10-16T09:18:00;21.25;20.00;13.00
65361;PMS5003;51961;54.960;73.462;2022-10-16T09:24:15;18.00;16.00;7.00
65361;PMS5003;51961;54.960;73.462;2022-10-16T09:27:18;19.00;17.00;7.50
65361;PMS5003;51961;54.960;73.462;2022-10-16T09:30:22;19.75;17.00;6.00
65361;PMS5003;51961;54.960;73.462;2022-10-16T09:33:28;19.50;15.75;6.50
65361;PMS5003;51961;54.960;73.462;2022-10-16T09:36:42;21.00;14.50;7.00
65361;PMS5003;51961;54.960;73.462;2022-10-16T09:39:48;22.00;20.00;11.67
65361;PMS5003;51961;54.960;73.462;2022-10-16T09:42:54;19.33;19.00;11.00
65361;PMS5003;51961;54.960;73.462;2022-10-16T09:46:01;19.75;15.00;7.75
65361;PMS5003;51961;54.960;73.462;2022-10-16T09:49:04;20.67;17.00;8.67
65361;PMS5003;51961;54.960;73.462;2022-10-16T09:52:13;22.33;21.67;11.00
65361;PMS5003;51961;54.960;73.462;2022-10-16T09:55:17;25.00;22.00;11.67
65361;PMS5003;51961;54.960;73.462;2022-10-16T09:58:22;22.00;20.33;12.00
65361;PMS5003;51961;54.960;73.462;2022-10-16T10:02:08;26.00;22.33;12.67
65361;PMS5003;51961;54.960;73.462;2022-10-16T10:04:51;26.00;23.00;14.00
65361;PMS5003;51961;54.960;73.462;2022-10-16T10:10:59;27.00;23.00;13.00
65361;PMS5003;51961;54.960;73.462;2022-10-16T10:14:05;30.00;24.00;14.67
65361;PMS5003;51961;54.960;73.462;2022-10-16T10:23:24;38.75;28.00;18.00
65361;PMS5003;51961;54.960;73.462;2022-10-16T10:26:28;36.75;28.75;19.00
65361;PMS5003;51961;54.960;73.462;2022-10-16T10:32:38;32.75;27.00;17.00
65361;PMS5003;51961;54.960;73.462;2022-10-16T10:39:11;25.67;21.33;14.67
65361;PMS5003;51961;54.960;73.462;2022-10-16T10:42:38;28.25;23.75;16.25
65361;PMS5003;51961;54.960;73.462;2022-10-16T10:55:36;26.67;21.33;14.00
65361;PMS5003;51961;54.960;73.462;2022-10-16T11:01:52;24.00;21.00;13.00
65361;PMS5003;51961;54.960;73.462;2022-10-16T11:05:14;28.67;24.67;15.00
65361;PMS5003;51961;54.960;73.462;2022-10-16T11:08:26;30.33;25.67;16.67
65361;PMS5003;51961;54.960;73.462;2022-10-16T11:11:40;33.75;26.50;16.50
65361;PMS5003;51961;54.960;73.462;2022-10-16T11:14:48;32.50;26.00;17.00
65361;PMS5003;51961;54.960;73.462;2022-10-16T11:18:00;27.75;25.00;16.00
65361;PMS5003;51961;54.960;73.462;2022-10-16T11:21:06;27.00;22.75;15.00
65361;PMS5003;51961;54.960;73.462;2022-10-16T11:24:29;19.00;15.67;8.00
65361;PMS5003;51961;54.960;73.462;2022-10-16T11:27:38;16.00;15.00;5.00
65361;PMS5003;51961;54.960;73.462;2022-10-16T11:30:57;14.75;13.00;6.00
65361;PMS5003;51961;54.960;73.462;2022-10-16T11:37:12;17.00;16.00;8.00
65361;PMS5003;51961;54.960;73.462;2022-10-16T11:40:28;15.75;14.50;7.25
65361;PMS5003;51961;54.960;73.462;2022-10-16T11:43:45;16.00;13.00;5.00
65361;PMS5003;51961;54.960;73.462;2022-10-16T11:56:43;6.00;5.00;2.00
65361;PMS5003;51961;54.960;73.462;2022-10-16T12:06:25;6.00;5.00;1.00
65361;PMS5003;51961;54.960;73.462;2022-10-16T12:09:32;8.00;7.00;2.00
65361;PMS5003;51961;54.960;73.462;2022-10-16T12:15:38;6.75;6.00;2.25
65361;PMS5003;51961;54.960;73.462;2022-10-16T12:18:42;8.25;6.75;4.75
65361;PMS5003;51961;54.960;73.462;2022-10-16T12:21:46;12.00;9.00;4.00
65361;PMS5003;51961;54.960;73.462;2022-10-16T12:24:51;12.00;9.00;4.00
65361;PMS5003;51961;54.960;73.462;2022-10-16T12:27:58;8.25;6.00;4.00
65361;PMS5003;51961;54.960;73.462;2022-10-16T12:31:01;13.00;10.00;5.00
65361;PMS5003;51961;54.960;73.462;2022-10-16T12:34:04;14.00;10.00;5.00
65361;PMS5003;51961;54.960;73.462;2022-10-16T12:37:10;16.75;13.00;6.00
65361;PMS5003;51961;54.960;73.462;2022-10-16T12:40:27;21.75;18.00;10.00
65361;PMS5003;51961;54.960;73.462;2022-10-16T12:46:38;23.00;21.00;10.50
65361;PMS5003;51961;54.960;73.462;2022-10-16T12:49:47;26.00;22.00;12.67
65361;PMS5003;51961;54.960;73.462;2022-10-16T12:52:51;29.00;25.00;15.33
65361;PMS5003;51961;54.960;73.462;2022-10-16T13:02:37;33.00;24.67;16.00
65361;PMS5003;51961;54.960;73.462;2022-10-16T13:05:46;34.00;25.75;16.00
65361;PMS5003;51961;54.960;73.462;2022-10-16T13:12:06;25.00;21.50;14.00
65361;PMS5003;51961;54.960;73.462;2022-10-16T13:15:23;26.00;21.25;14.50
65361;PMS5003;51961;54.960;73.462;2022-10-16T13:18:42;28.00;24.67;15.00
65361;PMS5003;51961;54.960;73.462;2022-10-16T13:21:51;32.33;26.00;15.00
65361;PMS5003;51961;54.960;73.462;2022-10-16T13:25:19;31.00;26.00;16.00
65361;PMS5003;51961;54.960;73.462;2022-10-16T13:28:27;33.00;27.33;17.67
65361;PMS5003;51961;54.960;73.462;2022-10-16T13:31:30;43.33;33.67;19.67
65361;PMS5003;51961;54.960;73.462;2022-10-16T13:34:41;46.67;36.00;23.00
65361;PMS5003;51961;54.960;73.462;2022-10-16T13:37:45;44.67;35.00;23.00
65361;PMS5003;51961;54.960;73.462;2022-10-16T13:40:59;40.25;32.00;21.25
65361;PMS5003;51961;54.960;73.462;2022-10-16T13:44:14;37.67;29.33;20.00
65361;PMS5003;51961;54.960;73.462;2022-10-16T13:47:28;40.00;29.50;19.00
65361;PMS5003;51961;54.960;73.462;2022-10-16T13:50:41;38.75;31.00;19.00
65361;PMS5003;51961;54.960;73.462;2022-10-16T13:53:48;39.00;30.00;19.00
65361;PMS5003;51961;54.960;73.462;2022-10-16T13:56:50;38.67;29.00;19.00
65361;PMS5003;51961;54.960;73.462;2022-10-16T13:59:54;39.50;31.00;19.00
65361;PMS5003;51961;54.960;73.462;2022-10-16T14:03:02;38.00;30.00;19.00
65361;PMS5003;51961;54.960;73.462;2022-10-16T14:06:05;40.00;31.00;19.50
65361;PMS5003;51961;54.960;73.462;2022-10-16T14:09:25;38.00;31.00;20.00
65361;PMS5003;51961;54.960;73.462;2022-10-16T14:12:29;38.25;30.25;19.00
65361;PMS5003;51961;54.960;73.462;2022-10-16T14:15:31;38.00;29.33;18.67
65361;PMS5003;51961;54.960;73.462;2022-10-16T14:18:46;38.00;28.00;18.67
65361;PMS5003;51961;54.960;73.462;2022-10-16T14:21:51;32.75;25.50;17.00
65361;PMS5003;51961;54.960;73.462;2022-10-16T14:24:54;30.00;25.00;16.00
65361;PMS5003;51961;54.960;73.462;2022-10-16T14:34:26;24.75;22.75;13.75
65361;PMS5003;51961;54.960;73.462;2022-10-16T14:37:32;20.00;18.00;11.00
65361;PMS5003;51961;54.960;73.462;2022-10-16T14:40:35;22.00;17.00;9.00
65361;PMS5003;51961;54.960;73.462;2022-10-16T14:43:40;23.25;18.50;9.00
65361;PMS5003;51961;54.960;73.462;2022-10-16T14:46:47;25.67;21.67;12.00
65361;PMS5003;51961;54.960;73.462;2022-10-16T14:49:50;23.00;20.33;13.00
65361;PMS5003;51961;54.960;73.462;2022-10-16T14:52:51;22.33;20.00;14.00
65361;PMS5003;51961;54.960;73.462;2022-10-16T14:55:54;24.00;21.50;13.00
65361;PMS5003;51961;54.960;73.462;2022-10-16T14:58:59;30.75;24.50;15.75
65361;PMS5003;51961;54.960;73.462;2022-10-16T15:02:20;34.00;26.67;17.67
65361;PMS5003;51961;54.960;73.462;2022-10-16T15:05:25;37.33;29.33;19.00
65361;PMS5003;51961;54.960;73.462;2022-10-16T15:08:29;42.00;33.00;21.00
65361;PMS5003;51961;54.960;73.462;2022-10-16T15:11:32;43.00;34.00;22.00
65361;PMS5003;51961;54.960;73.462;2022-10-16T15:14:35;43.00;35.00;22.00
65361;PMS5003;51961;54.960;73.462;2022-10-16T15:17:38;45.00;35.33;23.00
65361;PMS5003;51961;54.960;73.462;2022-10-16T15:20:41;45.00;35.00;23.00
65361;PMS5003;51961;54.960;73.462;2022-10-16T15:23:43;45.00;36.00;23.50
65361;PMS5003;51961;54.960;73.462;2022-10-16T15:26:55;49.00;37.75;25.00
65361;PMS5003;51961;54.960;73.462;2022-10-16T15:29:57;49.50;38.00;24.00
65361;PMS5003;51961;54.960;73.462;2022-10-16T15:33:11;50.00;38.00;25.00
65361;PMS5003;51961;54.960;73.462;2022-10-16T15:36:29;49.00;38.00;25.00
65361;PMS5003;51961;54.960;73.462;2022-10-16T15:39:31;48.00;38.50;25.50
65361;PMS5003;51961;54.960;73.462;2022-10-16T15:42:34;50.00;39.00;27.00
65361;PMS5003;51961;54.960;73.462;2022-10-16T15:45:58;49.00;38.00;25.00
65361;PMS5003;51961;54.960;73.462;2022-10-16T15:49:02;48.33;38.00;25.00
65361;PMS5003;51961;54.960;73.462;2022-10-16T15:52:16;47.00;37.00;25.00
65361;PMS5003;51961;54.960;73.462;2022-10-16T15:55:18;47.00;36.00;24.00
65361;PMS5003;51961;54.960;73.462;2022-10-16T15:58:20;45.00;35.00;24.00
65361;PMS5003;51961;54.960;73.462;2022-10-16T16:01:31;46.00;35.67;23.00
65361;PMS5003;51961;54.960;73.462;2022-10-16T16:04:33;44.75;34.00;23.00
65361;PMS5003;51961;54.960;73.462;2022-10-16T16:07:37;47.33;35.00;22.00
65361;PMS5003;51961;54.960;73.462;2022-10-16T16:10:45;42.00;33.00;22.00
65361;PMS5003;51961;54.960;73.462;2022-10-16T16:13:46;41.00;34.00;21.00
65361;PMS5003;51961;54.960;73.462;2022-10-16T16:16:50;42.00;33.00;21.00
65361;PMS5003;51961;54.960;73.462;2022-10-16T16:19:52;40.50;32.00;21.00
65361;PMS5003;51961;54.960;73.462;2022-10-16T16:22:55;39.00;31.00;20.00
65361;PMS5003;51961;54.960;73.462;2022-10-16T16:29:06;36.00;28.25;19.00
65361;PMS5003;51961;54.960;73.462;2022-10-16T16:32:09;36.00;28.25;19.00
65361;PMS5003;51961;54.960;73.462;2022-10-16T16:35:11;34.00;28.00;18.00
65361;PMS5003;51961;54.960;73.462;2022-10-16T16:38:13;30.00;26.00;17.00
65361;PMS5003;51961;54.960;73.462;2022-10-16T16:41:17;29.00;25.00;17.00
65361;PMS5003;51961;54.960;73.462;2022-10-16T16:44:29;25.50;24.00;16.00
65361;PMS5003;51961;54.960;73.462;2022-10-16T16:47:41;31.00;25.67;17.00
65361;PMS5003;51961;54.960;73.462;2022-10-16T16:50:43;34.25;26.50;17.50
65361;PMS5003;51961;54.960;73.462;2022-10-16T16:53:50;39.00;31.00;20.25
65361;PMS5003;51961;54.960;73.462;2022-10-16T16:56:52;40.00;31.00;20.67
65361;PMS5003;51961;54.960;73.462;2022-10-16T16:59:54;36.75;29.00;19.00
65361;PMS5003;51961;54.960;73.462;2022-10-16T17:03:02;35.00;28.00;19.00
65361;PMS5003;51961;54.960;73.462;2022-10-16T17:06:06;36.75;28.50;18.00
65361;PMS5003;51961;54.960;73.462;2022-10-16T17:09:09;34.25;28.00;18.00
65361;PMS5003;51961;54.960;73.462;2022-10-16T17:12:11;31.75;26.00;17.00
65361;PMS5003;51961;54.960;73.462;2022-10-16T17:15:13;30.33;26.33;17.00
65361;PMS5003;51961;54.960;73.462;2022-10-16T17:18:15;31.67;26.00;16.67
65361;PMS5003;51961;54.960;73.462;2022-10-16T17:21:18;31.00;26.00;17.00
65361;PMS5003;51961;54.960;73.462;2022-10-16T17:24:21;31.00;26.00;17.00
65361;PMS5003;51961;54.960;73.462;2022-10-16T17:27:23;28.00;24.00;16.00
65361;PMS5003;51961;54.960;73.462;2022-10-16T17:30:25;25.67;23.33;15.00
65361;PMS5003;51961;54.960;73.462;2022-10-16T17:33:28;25.25;24.00;15.25
65361;PMS5003;51961;54.960;73.462;2022-10-16T17:36:33;25.00;24.00;15.00
65361;PMS5003;51961;54.960;73.462;2022-10-16T17:39:36;25.00;24.00;16.00
65361;PMS5003;51961;54.960;73.462;2022-10-16T17:42:38;27.50;24.00;16.00
65361;PMS5003;51961;54.960;73.462;2022-10-16T17:45:40;27.00;24.00;14.00
65361;PMS5003;51961;54.960;73.462;2022-10-16T17:48:44;25.00;23.00;14.00
65361;PMS5003;51961;54.960;73.462;2022-10-16T17:51:49;21.75;21.00;15.00
65361;PMS5003;51961;54.960;73.462;2022-10-16T17:54:51;23.00;21.67;13.00
65361;PMS5003;51961;54.960;73.462;2022-10-16T17:57:54;25.00;22.00;14.00
65361;PMS5003;51961;54.960;73.462;2022-10-16T18:00:57;23.50;21.25;13.00
65361;PMS5003;51961;54.960;73.462;2022-10-16T18:04:01;25.75;21.00;14.00
65361;PMS5003;51961;54.960;73.462;2022-10-16T18:07:06;25.25;21.00;15.00
65361;PMS5003;51961;54.960;73.462;2022-10-16T18:10:08;22.00;19.75;13.50
65361;PMS5003;51961;54.960;73.462;2022-10-16T18:13:13;21.25;20.75;12.00
65361;PMS5003;51961;54.960;73.462;2022-10-16T18:16:15;23.00;21.00;12.00
65361;PMS5003;51961;54.960;73.462;2022-10-16T18:19:19;21.75;20.50;12.00
65361;PMS5003;51961;54.960;73.462;2022-10-16T18:22:22;25.00;21.00;12.00
65361;PMS5003;51961;54.960;73.462;2022-10-16T18:25:25;25.00;20.25;12.75
65361;PMS5003;51961;54.960;73.462;2022-10-16T18:28:34;25.75;22.25;14.00
65361;PMS5003;51961;54.960;73.462;2022-10-16T18:31:36;21.67;19.33;14.00
65361;PMS5003;51961;54.960;73.462;2022-10-16T18:34:38;24.33;20.00;14.00
65361;PMS5003;51961;54.960;73.462;2022-10-16T18:37:39;21.00;20.00;14.00
65361;PMS5003;51961;54.960;73.462;2022-10-16T18:40:44;22.75;20.75;14.00
65361;PMS5003;51961;54.960;73.462;2022-10-16T18:43:46;24.00;20.00;14.00
65361;PMS5003;51961;54.960;73.462;2022-10-16T18:46:48;24.33;20.33;14.00
65361;PMS5003;51961;54.960;73.462;2022-10-16T18:49:52;24.00;22.00;13.00
65361;PMS5003;51961;54.960;73.462;2022-10-16T18:53:01;31.75;22.50;13.00
65361;PMS5003;51961;54.960;73.462;2022-10-16T18:56:14;26.67;22.00;14.33